createdAt,value
2022-10-21T00:01:37.202Z,4.15
2022-10-21T00:04:06.742Z,3.55
2022-10-21T00:06:35.891Z,4.10
2022-10-21T00:09:05.240Z,3.53
2022-10-21T00:11:34.464Z,3.65
2022-10-21T00:14:05.096Z,3.63
2022-10-21T00:16:34.195Z,3.80
2022-10-21T00:19:03.322Z,4.03
2022-10-21T00:21:32.557Z,4.20
2022-10-21T00:24:01.735Z,4.00
2022-10-21T00:26:33.793Z,4.20
2022-10-21T00:29:08.126Z,4.25
2022-10-21T00:31:37.276Z,4.03
2022-10-21T00:34:06.499Z,3.75
2022-10-21T00:36:35.702Z,4.30
2022-10-21T00:39:05.074Z,4.18
2022-10-21T00:41:34.182Z,3.72
2022-10-21T00:44:05.921Z,4.50
2022-10-21T00:46:41.391Z,4.25
2022-10-21T00:49:18.079Z,3.70
2022-10-21T00:51:50.418Z,3.90
2022-10-21T00:54:22.847Z,4.47
2022-10-21T00:56:53.809Z,4.32
2022-10-21T00:59:24.097Z,4.25
2022-10-21T01:01:55.327Z,3.97
2022-10-21T01:04:25.139Z,3.90
2022-10-21T01:06:54.549Z,3.95
2022-10-21T01:09:23.899Z,4.57
2022-10-21T01:11:53.400Z,4.05
2022-10-21T01:14:51.205Z,3.80
2022-10-21T01:17:45.177Z,4.10
2022-10-21T01:20:32.855Z,3.75
2022-10-21T01:23:47.375Z,4.30
2022-10-21T01:26:58.328Z,4.00
2022-10-21T01:29:58.885Z,4.13
2022-10-21T01:32:43.152Z,4.25
2022-10-21T01:35:17.154Z,4.18
2022-10-21T01:37:54.657Z,3.75
2022-10-21T01:40:28.137Z,4.22
2022-10-21T01:42:59.958Z,4.00
2022-10-21T01:45:33.710Z,4.45
2022-10-21T01:48:07.052Z,4.07
2022-10-21T01:50:40.708Z,4.13
2022-10-21T01:53:14.220Z,4.50
2022-10-21T01:55:44.740Z,4.35
2022-10-21T01:58:19.268Z,4.38
2022-10-21T02:00:49.876Z,4.35
2022-10-21T02:03:24.436Z,4.53
2022-10-21T02:05:53.786Z,4.15
2022-10-21T02:08:23.004Z,3.97
2022-10-21T02:10:54.542Z,4.03
2022-10-21T02:13:33.066Z,4.50
2022-10-21T02:16:05.417Z,4.65
2022-10-21T02:18:36.854Z,4.80
2022-10-21T02:21:10.178Z,4.10
2022-10-21T02:23:47.486Z,4.25
2022-10-21T02:26:16.690Z,4.30
2022-10-21T02:28:45.973Z,4.53
2022-10-21T02:31:37.091Z,4.63
2022-10-21T02:34:15.450Z,4.35
2022-10-21T02:36:53.544Z,4.30
2022-10-21T02:39:37.495Z,4.50
2022-10-21T02:42:10.713Z,4.50
2022-10-21T02:44:40.040Z,4.60
2022-10-21T02:47:09.354Z,4.65
2022-10-21T02:49:39.896Z,4.60
2022-10-21T02:52:09.022Z,4.25
2022-10-21T02:54:38.352Z,4.85
2022-10-21T02:57:07.640Z,4.47
2022-10-21T02:59:36.816Z,4.75
2022-10-21T03:02:06.050Z,4.43
2022-10-21T03:04:35.324Z,4.00
2022-10-21T03:07:05.815Z,4.53
2022-10-21T03:09:34.956Z,4.60
2022-10-21T03:12:04.282Z,4.72
2022-10-21T03:14:33.454Z,4.53
2022-10-21T03:17:02.607Z,4.72
2022-10-21T03:19:31.719Z,4.90
2022-10-21T03:22:00.957Z,4.57
2022-10-21T03:24:31.762Z,4.60
2022-10-21T03:27:00.866Z,4.53
2022-10-21T03:29:30.060Z,4.45
2022-10-21T03:31:59.190Z,4.65
2022-10-21T03:34:28.374Z,4.47
2022-10-21T03:36:57.479Z,4.97
2022-10-21T03:39:26.592Z,4.63
2022-10-21T03:41:57.337Z,4.70
2022-10-21T03:44:26.666Z,4.68
2022-10-21T03:46:55.872Z,4.50
2022-10-21T03:49:25.037Z,4.47
2022-10-21T03:51:54.279Z,4.85
2022-10-21T03:54:23.548Z,4.72
2022-10-21T03:56:52.728Z,4.20
2022-10-21T03:59:23.360Z,4.85
2022-10-21T04:01:52.592Z,4.63
2022-10-21T04:04:21.948Z,4.80
2022-10-21T04:06:51.099Z,4.93
2022-10-21T04:09:20.203Z,4.90
2022-10-21T04:11:49.401Z,4.75
2022-10-21T04:14:20.059Z,4.82
2022-10-21T04:16:53.622Z,4.93
2022-10-21T04:19:31.368Z,4.82
2022-10-21T04:22:00.581Z,4.93
2022-10-21T04:24:29.777Z,4.95
2022-10-21T04:26:58.877Z,4.90
2022-10-21T04:29:28.071Z,4.70
2022-10-21T04:31:58.607Z,4.97
2022-10-21T04:34:28.002Z,5.03
2022-10-21T04:36:59.861Z,4.70
2022-10-21T04:39:31.900Z,4.97
2022-10-21T04:42:01.120Z,5.15
2022-10-21T04:44:30.229Z,4.68
2022-10-21T04:47:00.846Z,4.43
2022-10-21T04:49:29.937Z,4.88
2022-10-21T04:51:59.036Z,4.70
2022-10-21T04:54:28.189Z,4.88
2022-10-21T04:56:57.270Z,5.03
2022-10-21T04:59:26.434Z,4.80
2022-10-21T05:01:55.662Z,5.38
2022-10-21T05:04:26.344Z,4.75
2022-10-21T05:06:55.698Z,5.28
2022-10-21T05:09:24.760Z,5.22
2022-10-21T05:11:53.886Z,5.00
2022-10-21T05:14:23.144Z,4.85
2022-10-21T05:16:52.659Z,4.22
2022-10-21T05:19:21.926Z,4.80
2022-10-21T05:21:52.510Z,4.70
2022-10-21T05:24:21.983Z,5.28
2022-10-21T05:26:51.731Z,4.45
2022-10-21T05:29:21.162Z,4.75
2022-10-21T05:31:50.414Z,4.10
2022-10-21T05:34:19.816Z,4.50
2022-10-21T05:36:49.990Z,4.15
2022-10-21T05:39:20.718Z,4.65
2022-10-21T05:41:49.948Z,4.65
2022-10-21T05:44:19.355Z,4.43
2022-10-21T05:46:48.732Z,4.20
2022-10-21T05:49:18.147Z,4.97
2022-10-21T05:51:47.954Z,4.60
2022-10-21T05:54:17.497Z,4.10
2022-10-21T05:56:48.292Z,4.55
2022-10-21T05:59:17.977Z,4.65
2022-10-21T06:01:47.295Z,4.45
2022-10-21T06:04:17.147Z,4.22
2022-10-21T06:06:46.508Z,4.60
2022-10-21T06:09:15.922Z,4.68
2022-10-21T06:11:45.184Z,4.88
2022-10-21T06:14:16.000Z,4.13
2022-10-21T06:16:45.379Z,4.32
2022-10-21T06:19:14.622Z,4.50
2022-10-21T06:21:43.854Z,3.67
2022-10-21T06:24:13.391Z,4.10
2022-10-21T06:26:43.053Z,4.05
2022-10-21T06:29:12.353Z,4.15
2022-10-21T06:31:43.083Z,4.28
2022-10-21T06:34:12.446Z,4.20
2022-10-21T06:36:41.794Z,3.88
2022-10-21T06:39:11.351Z,4.18
2022-10-21T06:41:40.847Z,4.30
2022-10-21T06:44:10.217Z,4.28
2022-10-21T06:46:39.479Z,3.85
2022-10-21T06:49:10.121Z,4.13
2022-10-21T06:51:39.429Z,3.85
2022-10-21T06:54:08.906Z,4.00
2022-10-21T06:56:38.141Z,4.45
2022-10-21T06:59:07.266Z,3.85
2022-10-21T07:01:55.246Z,4.43
2022-10-21T07:04:27.753Z,4.30
2022-10-21T07:06:56.993Z,3.97
2022-10-21T07:09:26.378Z,4.35
2022-10-21T07:11:55.792Z,4.00
2022-10-21T07:14:25.501Z,4.18
2022-10-21T07:16:54.944Z,4.18
2022-10-21T07:19:24.190Z,3.92
2022-10-21T07:21:54.835Z,4.00
2022-10-21T07:24:24.177Z,3.78
2022-10-21T07:26:53.422Z,4.28
2022-10-21T07:29:22.712Z,3.65
2022-10-21T07:31:52.757Z,4.05
2022-10-21T07:34:22.054Z,4.22
2022-10-21T07:36:53.042Z,3.88
2022-10-21T07:39:25.645Z,3.80
2022-10-21T07:41:57.469Z,4.35
2022-10-21T07:44:27.904Z,3.97
2022-10-21T07:46:57.700Z,4.00
2022-10-21T07:49:27.047Z,3.97
2022-10-21T07:51:56.388Z,3.58
2022-10-21T07:54:27.492Z,3.85
2022-10-21T07:56:56.698Z,3.72
2022-10-21T07:59:25.947Z,3.60
2022-10-21T08:01:55.128Z,4.03
2022-10-21T08:04:29.947Z,4.20
2022-10-21T08:06:59.660Z,3.40
2022-10-21T08:09:30.422Z,3.17
2022-10-21T08:12:00.287Z,3.42
2022-10-21T08:14:29.633Z,3.72
2022-10-21T08:16:58.974Z,3.58
2022-10-21T08:19:29.937Z,3.97
2022-10-21T08:22:00.932Z,3.65
2022-10-21T08:24:31.778Z,3.50
2022-10-21T08:27:01.186Z,3.72
2022-10-21T08:29:30.467Z,3.55
2022-10-21T08:31:59.721Z,3.85
2022-10-21T08:34:29.099Z,3.63
2022-10-21T08:36:58.494Z,3.03
2022-10-21T08:39:28.063Z,3.15
2022-10-21T08:42:20.141Z,3.05
2022-10-21T08:44:56.315Z,3.30
2022-10-21T08:47:35.130Z,3.00
2022-10-21T08:50:07.397Z,3.10
2022-10-21T08:52:44.016Z,3.38
2022-10-21T08:55:20.442Z,3.08
2022-10-21T08:57:53.697Z,2.90
2022-10-21T09:00:25.251Z,3.08
2022-10-21T09:03:08.831Z,3.13
2022-10-21T09:06:01.902Z,3.35
2022-10-21T09:08:37.764Z,3.13
2022-10-21T09:11:14.566Z,2.97
2022-10-21T09:14:04.357Z,2.92
2022-10-21T09:16:42.907Z,2.85
2022-10-21T09:19:25.501Z,3.03
2022-10-21T09:22:33.139Z,3.03
2022-10-21T09:25:01.320Z,2.35
2022-10-21T09:27:32.060Z,2.70
2022-10-21T09:30:15.644Z,2.90
2022-10-21T09:32:50.172Z,2.60
2022-10-21T09:35:30.437Z,2.95
2022-10-21T09:38:04.266Z,2.10
2022-10-21T09:40:34.112Z,2.42
2022-10-21T09:43:04.491Z,2.47
2022-10-21T09:45:37.900Z,2.33
2022-10-21T09:48:21.723Z,2.53
2022-10-21T09:50:54.894Z,2.53
2022-10-21T09:53:28.642Z,2.33
2022-10-21T09:56:04.052Z,2.25
2022-10-21T09:58:47.924Z,2.30
2022-10-21T10:01:21.302Z,2.78
2022-10-21T10:03:52.086Z,2.55
2022-10-21T10:06:34.727Z,2.80
2022-10-21T10:09:17.011Z,2.45
2022-10-21T10:11:55.120Z,2.88
2022-10-21T10:14:34.656Z,2.70
2022-10-21T10:17:33.810Z,2.53
2022-10-21T10:20:19.527Z,2.72
2022-10-21T10:23:07.971Z,2.45
2022-10-21T10:25:39.590Z,2.08
2022-10-21T10:28:21.934Z,2.50
2022-10-21T10:30:54.600Z,2.60
2022-10-21T10:33:28.132Z,2.55
2022-10-21T10:35:59.620Z,2.63
2022-10-21T10:38:33.084Z,2.20
2022-10-21T10:41:08.221Z,2.45
2022-10-21T10:43:43.760Z,2.30
2022-10-21T10:46:24.569Z,2.50
2022-10-21T10:48:57.049Z,2.22
2022-10-21T10:51:29.013Z,2.10
2022-10-21T10:54:04.852Z,2.70
2022-10-21T10:56:39.782Z,2.30
2022-10-21T10:59:15.928Z,2.85
2022-10-21T11:01:53.689Z,2.47
2022-10-21T11:04:32.060Z,1.90
2022-10-21T11:07:12.632Z,2.38
2022-10-21T11:09:42.054Z,2.38
2022-10-21T11:12:20.548Z,2.20
2022-10-21T11:14:54.615Z,1.77
2022-10-21T11:17:29.775Z,2.10
2022-10-21T11:20:12.389Z,2.08
2022-10-21T11:22:51.745Z,2.25
2022-10-21T11:25:26.110Z,1.83
2022-10-21T11:28:15.069Z,2.28
2022-10-21T11:30:58.643Z,1.92
2022-10-21T11:33:37.229Z,1.90
2022-10-21T11:36:12.492Z,2.50
2022-10-21T11:39:09.040Z,2.08
2022-10-21T11:41:41.717Z,2.28
2022-10-21T11:44:21.347Z,2.17
2022-10-21T11:47:03.336Z,2.28
2022-10-21T11:49:45.772Z,2.00
2022-10-21T11:52:28.536Z,2.03
2022-10-21T11:55:16.277Z,2.00
2022-10-21T11:57:54.982Z,2.00
2022-10-21T12:00:26.539Z,1.92
2022-10-21T12:03:12.933Z,2.20
2022-10-21T12:05:53.736Z,1.90
2022-10-21T12:08:28.886Z,2.00
2022-10-21T12:11:02.272Z,1.80
2022-10-21T12:13:35.085Z,2.30
2022-10-21T12:16:07.997Z,1.75
2022-10-21T12:18:45.328Z,1.52
2022-10-21T12:21:19.367Z,2.05
2022-10-21T12:23:55.309Z,1.95
2022-10-21T12:26:28.110Z,1.63
2022-10-21T12:29:02.515Z,2.03
2022-10-21T12:31:40.973Z,1.95
2022-10-21T12:34:12.225Z,1.80
2022-10-21T12:36:45.090Z,1.60
2022-10-21T12:39:50.822Z,1.70
2022-10-21T12:42:22.683Z,1.50
2022-10-21T12:44:53.467Z,2.08
2022-10-21T12:47:26.832Z,1.67
2022-10-21T12:50:18.882Z,1.77
2022-10-21T12:53:03.995Z,1.75
2022-10-21T12:55:40.336Z,1.90
2022-10-21T12:58:23.659Z,2.00
2022-10-21T13:00:55.874Z,1.95
2022-10-21T13:03:56.350Z,1.92
2022-10-21T13:06:54.680Z,1.63
2022-10-21T13:09:40.263Z,1.70
2022-10-21T13:12:29.080Z,1.70
2022-10-21T13:14:59.974Z,1.60
2022-10-21T13:17:49.219Z,1.70
2022-10-21T13:20:47.605Z,1.83
2022-10-21T13:23:38.811Z,1.65
2022-10-21T13:26:20.283Z,1.73
2022-10-21T13:29:04.557Z,1.52
2022-10-21T13:31:34.393Z,1.50
2022-10-21T13:34:04.502Z,1.70
2022-10-21T13:36:42.962Z,1.77
2022-10-21T13:39:26.473Z,1.60
2022-10-21T13:42:02.824Z,1.50
2022-10-21T13:44:38.102Z,1.80
2022-10-21T13:47:28.506Z,1.90
2022-10-21T13:50:03.962Z,1.95
2022-10-21T13:52:33.370Z,1.65
2022-10-21T13:55:04.731Z,1.58
2022-10-21T13:57:36.972Z,1.63
2022-10-21T14:00:11.361Z,1.92
2022-10-21T14:02:48.822Z,1.75
2022-10-21T14:05:32.553Z,1.70
2022-10-21T14:08:02.420Z,1.67
2022-10-21T14:10:32.223Z,1.45
2022-10-21T14:13:01.891Z,1.50
2022-10-21T14:15:41.145Z,1.80
2022-10-21T14:18:25.724Z,1.45
2022-10-21T14:20:58.923Z,1.60
2022-10-21T14:23:29.296Z,1.88
2022-10-21T14:26:06.177Z,1.77
2022-10-21T14:28:36.373Z,1.92
2022-10-21T14:31:12.483Z,1.65
2022-10-21T14:33:43.655Z,1.85
2022-10-21T14:36:16.401Z,1.67
2022-10-21T14:38:53.038Z,1.77
2022-10-21T14:41:26.077Z,1.50
2022-10-21T14:43:58.405Z,1.60
2022-10-21T14:46:29.440Z,1.30
2022-10-21T14:49:02.632Z,1.60
2022-10-21T14:51:38.392Z,1.60
2022-10-21T14:54:26.556Z,1.80
2022-10-21T14:56:56.067Z,2.03
2022-10-21T14:59:27.431Z,1.75
2022-10-21T15:02:00.617Z,1.60
2022-10-21T15:04:45.286Z,1.60
2022-10-21T15:07:19.971Z,2.17
2022-10-21T15:10:01.613Z,1.70
2022-10-21T15:12:40.167Z,1.73
2022-10-21T15:15:54.226Z,1.80
2022-10-21T15:18:29.600Z,1.70
2022-10-21T15:21:02.587Z,2.00
2022-10-21T15:23:34.897Z,1.70
2022-10-21T15:26:10.880Z,1.90
2022-10-21T15:28:42.020Z,1.90
2022-10-21T15:31:17.455Z,1.98
2022-10-21T15:33:50.391Z,1.83
2022-10-21T15:36:20.184Z,1.50
2022-10-21T15:38:50.040Z,1.80
2022-10-21T15:41:21.460Z,1.80
2022-10-21T15:43:58.728Z,2.13
2022-10-21T15:46:29.582Z,2.03
2022-10-21T15:49:02.034Z,1.42
2022-10-21T15:51:31.445Z,1.80
2022-10-21T15:54:00.769Z,1.77
2022-10-21T15:56:30.169Z,1.90
2022-10-21T15:58:59.502Z,2.00
2022-10-21T16:01:28.967Z,1.90
2022-10-21T16:03:59.724Z,1.77
2022-10-21T16:06:28.921Z,2.08
2022-10-21T16:08:58.307Z,1.85
2022-10-21T16:11:40.554Z,2.03
2022-10-21T16:14:14.535Z,2.10
2022-10-21T16:16:48.448Z,2.05
2022-10-21T16:19:19.573Z,2.38
2022-10-21T16:21:49.194Z,2.72
2022-10-21T16:24:18.678Z,1.90
2022-10-21T16:26:50.203Z,2.22
2022-10-21T16:29:21.358Z,2.92
2022-10-21T16:31:51.143Z,3.50
2022-10-21T16:34:21.963Z,2.65
2022-10-21T16:36:51.239Z,3.60
2022-10-21T16:39:24.510Z,2.92
2022-10-21T16:41:54.019Z,2.97
2022-10-21T16:44:23.656Z,2.40
2022-10-21T16:46:55.234Z,2.40
2022-10-21T16:49:27.893Z,2.85
2022-10-21T16:51:57.892Z,2.50
2022-10-21T16:54:27.225Z,2.60
2022-10-21T16:56:56.607Z,2.30
2022-10-21T16:59:26.047Z,2.10
2022-10-21T17:01:55.309Z,2.17
2022-10-21T17:04:26.176Z,2.30
2022-10-21T17:06:57.649Z,2.30
2022-10-21T17:09:29.812Z,2.00
2022-10-21T17:11:58.971Z,2.42
2022-10-21T17:14:28.480Z,2.25
2022-10-21T17:16:58.222Z,2.28
2022-10-21T17:19:28.868Z,2.50
2022-10-21T17:21:58.357Z,2.20
2022-10-21T17:24:28.095Z,2.85
2022-10-21T17:26:57.724Z,3.20
2022-10-21T17:29:27.108Z,3.38
2022-10-21T17:31:56.274Z,3.33
2022-10-21T17:34:29.825Z,3.03
2022-10-21T17:37:00.250Z,2.67
2022-10-21T17:39:29.507Z,3.03
2022-10-21T17:41:58.849Z,3.90
2022-10-21T17:44:28.278Z,3.08
2022-10-21T17:46:57.662Z,3.03
2022-10-21T17:49:28.954Z,2.42
2022-10-21T17:51:58.251Z,2.85
2022-10-21T17:54:29.189Z,2.30
2022-10-21T17:56:59.172Z,2.55
2022-10-21T17:59:28.551Z,3.00
2022-10-21T18:01:57.753Z,2.83
2022-10-21T18:04:28.665Z,2.42
2022-10-21T18:06:57.898Z,2.25
2022-10-21T18:09:27.287Z,2.80
2022-10-21T18:11:58.604Z,2.60
2022-10-21T18:14:30.196Z,2.50
2022-10-21T18:16:59.307Z,2.42
2022-10-21T18:19:29.958Z,2.88
2022-10-21T18:21:59.248Z,2.70
2022-10-21T18:24:28.531Z,2.78
2022-10-21T18:26:57.967Z,2.65
2022-10-21T18:29:27.294Z,2.58
2022-10-21T18:31:56.744Z,2.22
2022-10-21T18:34:26.121Z,2.55
2022-10-21T18:36:59.643Z,2.08
2022-10-21T18:39:29.009Z,2.50
2022-10-21T18:41:58.197Z,2.40
2022-10-21T18:44:27.519Z,2.25
2022-10-21T18:46:56.731Z,2.10
2022-10-21T18:49:26.090Z,2.58
2022-10-21T18:51:56.837Z,2.20
2022-10-21T18:54:26.132Z,2.35
2022-10-21T18:56:55.502Z,2.50
2022-10-21T18:59:24.841Z,2.50
2022-10-21T19:01:55.047Z,2.20
2022-10-21T19:04:25.603Z,2.50
2022-10-21T19:06:54.765Z,2.45
2022-10-21T19:09:27.365Z,2.30
2022-10-21T19:11:59.610Z,1.70
2022-10-21T19:14:29.116Z,2.42
2022-10-21T19:16:58.481Z,2.53
2022-10-21T19:19:28.563Z,2.83
2022-10-21T19:21:57.984Z,2.85
2022-10-21T19:24:29.062Z,2.70
2022-10-21T19:27:00.289Z,2.00
2022-10-21T19:29:29.631Z,2.53
2022-10-21T19:31:58.856Z,2.95
2022-10-21T19:34:28.415Z,2.58
2022-10-21T19:36:57.807Z,2.83
2022-10-21T19:39:28.743Z,2.97
2022-10-21T19:41:59.643Z,2.60
2022-10-21T19:44:29.197Z,2.58
2022-10-21T19:46:58.694Z,3.00
2022-10-21T19:49:28.042Z,2.50
2022-10-21T19:51:57.152Z,2.45
2022-10-21T19:54:28.402Z,2.63
2022-10-21T19:56:57.570Z,2.45
2022-10-21T19:59:26.920Z,2.50
2022-10-21T20:01:56.260Z,2.25
2022-10-21T20:04:25.586Z,2.63
2022-10-21T20:06:54.895Z,2.33
2022-10-21T20:09:23.962Z,2.15
2022-10-21T20:11:56.874Z,2.00
2022-10-21T20:14:26.189Z,2.20
2022-10-21T20:16:55.282Z,2.33
2022-10-21T20:19:24.413Z,2.28
2022-10-21T20:21:53.536Z,2.40
2022-10-21T20:24:22.793Z,2.50
2022-10-21T20:26:54.042Z,2.40
2022-10-21T20:29:24.472Z,2.05
2022-10-21T20:31:53.568Z,2.38
2022-10-21T20:34:22.725Z,2.25
2022-10-21T20:36:51.792Z,2.00
2022-10-21T20:39:21.209Z,1.90
2022-10-21T20:41:50.355Z,2.30
2022-10-21T20:44:20.881Z,2.17
2022-10-21T20:46:50.000Z,2.15
2022-10-21T20:49:19.138Z,2.40
2022-10-21T20:51:48.244Z,2.30
2022-10-21T20:54:20.503Z,2.10
2022-10-21T20:56:49.928Z,2.35
2022-10-21T20:59:20.651Z,1.80
2022-10-21T21:01:49.864Z,2.10
2022-10-21T21:04:20.881Z,2.20
2022-10-21T21:06:51.224Z,2.03
2022-10-21T21:09:43.518Z,2.25
2022-10-21T21:12:10.987Z,2.28
2022-10-21T21:14:41.619Z,2.22
2022-10-21T21:17:10.916Z,1.80
2022-10-21T21:19:41.010Z,1.80
2022-10-21T21:22:10.207Z,2.10
2022-10-21T21:24:39.525Z,2.20
2022-10-21T21:27:08.674Z,2.05
2022-10-21T21:29:37.920Z,2.33
2022-10-21T21:32:08.633Z,2.38
2022-10-21T21:34:37.819Z,1.80
2022-10-21T21:37:07.017Z,1.92
2022-10-21T21:39:36.175Z,1.95
2022-10-21T21:42:05.564Z,2.20
2022-10-21T21:44:34.837Z,1.95
2022-10-21T21:47:04.017Z,1.85
2022-10-21T21:49:34.561Z,2.30
2022-10-21T21:52:03.709Z,2.10
2022-10-21T21:54:33.083Z,2.00
2022-10-21T21:57:28.964Z,2.20
2022-10-21T21:59:51.401Z,1.98
2022-10-21T22:02:20.533Z,1.60
2022-10-21T22:04:51.071Z,2.10
2022-10-21T22:07:21.629Z,2.03
2022-10-21T22:09:50.849Z,1.98
2022-10-21T22:12:23.125Z,1.77
2022-10-21T22:14:52.687Z,1.70
2022-10-21T22:17:21.949Z,2.15
2022-10-21T22:19:53.965Z,2.08
2022-10-21T22:22:23.257Z,1.65
2022-10-21T22:24:52.560Z,1.98
2022-10-21T22:27:21.641Z,2.22
2022-10-21T22:29:50.803Z,2.00
2022-10-21T22:32:19.974Z,2.17
2022-10-21T22:34:49.337Z,1.95
2022-10-21T22:37:19.959Z,1.98
2022-10-21T22:39:49.084Z,1.88
2022-10-21T22:42:18.246Z,1.70
2022-10-21T22:44:47.479Z,1.90
2022-10-21T22:47:16.657Z,1.50
2022-10-21T22:49:45.957Z,1.98
2022-10-21T22:52:15.473Z,1.58
2022-10-21T22:54:50.055Z,2.00
2022-10-21T22:57:19.417Z,1.60
2022-10-21T22:59:53.103Z,1.70
2022-10-21T23:02:23.621Z,1.58
2022-10-21T23:04:52.803Z,1.50
2022-10-21T23:07:22.008Z,1.80
2022-10-21T23:09:52.735Z,1.90
2022-10-21T23:12:21.909Z,1.70
2022-10-21T23:14:51.139Z,1.73
2022-10-21T23:17:20.245Z,1.50
2022-10-21T23:19:49.570Z,1.80
2022-10-21T23:22:18.823Z,1.80
2022-10-21T23:24:48.156Z,1.58
2022-10-21T23:27:19.010Z,1.40
2022-10-21T23:29:48.140Z,1.95
2022-10-21T23:32:17.266Z,1.60
2022-10-21T23:34:46.527Z,1.60
2022-10-21T23:37:15.733Z,1.77
2022-10-21T23:39:44.991Z,1.60
2022-10-21T23:42:14.185Z,1.55
2022-10-21T23:44:44.703Z,1.60
2022-10-21T23:47:13.940Z,1.55
2022-10-21T23:49:43.178Z,1.52
2022-10-21T23:52:12.304Z,1.48
2022-10-21T23:54:41.703Z,1.30
2022-10-21T23:57:10.851Z,1.40
2022-10-21T23:59:39.975Z,1.42
